sensor_id;sensor_type;location;lat;lon;timestamp;temperature;humidity
15115;DHT22;7658;51.456;7.622;2023-05-10T00:00:54;12.60;99.90
15115;DHT22;7658;51.456;7.622;2023-05-10T00:03:20;12.50;99.90
15115;DHT22;7658;51.456;7.622;2023-05-10T00:05:45;12.50;99.90
15115;DHT22;7658;51.456;7.622;2023-05-10T00:08:11;12.50;99.90
15115;DHT22;7658;51.456;7.622;2023-05-10T00:10:37;12.50;99.90
15115;DHT22;7658;51.456;7.622;2023-05-10T00:13:03;12.50;99.90
15115;DHT22;7658;51.456;7.622;2023-05-10T00:15:29;12.40;99.90
15115;DHT22;7658;51.456;7.622;2023-05-10T00:17:56;12.50;99.90
15115;DHT22;7658;51.456;7.622;2023-05-10T00:20:22;12.40;99.90
15115;DHT22;7658;51.456;7.622;2023-05-10T00:22:48;12.40;99.90
15115;DHT22;7658;51.456;7.622;2023-05-10T00:25:13;12.40;99.90
15115;DHT22;7658;51.456;7.622;2023-05-10T00:27:39;12.50;99.90
15115;DHT22;7658;51.456;7.622;2023-05-10T00:30:06;12.40;99.90
15115;DHT22;7658;51.456;7.622;2023-05-10T00:32:32;12.40;99.90
15115;DHT22;7658;51.456;7.622;2023-05-10T00:34:58;12.40;99.90
15115;DHT22;7658;51.456;7.622;2023-05-10T00:37:24;12.40;99.90
15115;DHT22;7658;51.456;7.622;2023-05-10T00:39:49;12.40;99.90
15115;DHT22;7658;51.456;7.622;2023-05-10T00:42:15;12.40;99.90
15115;DHT22;7658;51.456;7.622;2023-05-10T00:44:41;12.40;99.90
15115;DHT22;7658;51.456;7.622;2023-05-10T00:47:07;12.50;99.90
15115;DHT22;7658;51.456;7.622;2023-05-10T00:49:33;12.50;99.90
15115;DHT22;7658;51.456;7.622;2023-05-10T00:51:59;12.40;99.90
15115;DHT22;7658;51.456;7.622;2023-05-10T00:54:27;12.40;99.90
15115;DHT22;7658;51.456;7.622;2023-05-10T00:56:53;12.40;99.90
15115;DHT22;7658;51.456;7.622;2023-05-10T00:59:19;12.30;99.90
15115;DHT22;7658;51.456;7.622;2023-05-10T01:01:45;12.30;99.90
15115;DHT22;7658;51.456;7.622;2023-05-10T01:04:12;12.30;99.90
15115;DHT22;7658;51.456;7.622;2023-05-10T01:06:39;12.30;99.90
15115;DHT22;7658;51.456;7.622;2023-05-10T01:09:05;12.40;99.90
15115;DHT22;7658;51.456;7.622;2023-05-10T01:11:33;12.40;99.90
15115;DHT22;7658;51.456;7.622;2023-05-10T01:13:59;12.40;99.90
15115;DHT22;7658;51.456;7.622;2023-05-10T01:16:26;12.30;99.90
15115;DHT22;7658;51.456;7.622;2023-05-10T01:18:53;12.30;99.90
15115;DHT22;7658;51.456;7.622;2023-05-10T01:21:38;12.40;99.90
15115;DHT22;7658;51.456;7.622;2023-05-10T01:38:32;12.30;99.90
15115;DHT22;7658;51.456;7.622;2023-05-10T01:41:17;12.30;99.90
15115;DHT22;7658;51.456;7.622;2023-05-10T01:43:57;12.30;99.90
15115;DHT22;7658;51.456;7.622;2023-05-10T01:46:35;12.30;99.90
15115;DHT22;7658;51.456;7.622;2023-05-10T01:49:07;12.30;99.90
15115;DHT22;7658;51.456;7.622;2023-05-10T01:51:50;12.30;99.90
15115;DHT22;7658;51.456;7.622;2023-05-10T01:54:19;12.30;99.90
15115;DHT22;7658;51.456;7.622;2023-05-10T01:56:48;12.30;99.90
15115;DHT22;7658;51.456;7.622;2023-05-10T01:59:18;12.30;99.90
15115;DHT22;7658;51.456;7.622;2023-05-10T02:01:45;12.30;99.90
15115;DHT22;7658;51.456;7.622;2023-05-10T02:04:16;12.30;99.90
15115;DHT22;7658;51.456;7.622;2023-05-10T02:06:43;12.30;99.90
15115;DHT22;7658;51.456;7.622;2023-05-10T02:09:11;12.30;99.90
15115;DHT22;7658;51.456;7.622;2023-05-10T02:11:39;12.30;99.90
15115;DHT22;7658;51.456;7.622;2023-05-10T02:14:09;12.30;99.90
15115;DHT22;7658;51.456;7.622;2023-05-10T02:16:38;12.30;99.90
15115;DHT22;7658;51.456;7.622;2023-05-10T02:19:05;12.30;99.90
15115;DHT22;7658;51.456;7.622;2023-05-10T02:21:32;12.30;99.90
15115;DHT22;7658;51.456;7.622;2023-05-10T02:24:00;12.30;99.90
15115;DHT22;7658;51.456;7.622;2023-05-10T02:26:26;12.30;99.90
15115;DHT22;7658;51.456;7.622;2023-05-10T02:28:53;12.30;99.90
15115;DHT22;7658;51.456;7.622;2023-05-10T02:31:20;12.30;99.90
15115;DHT22;7658;51.456;7.622;2023-05-10T02:33:48;12.40;99.90
15115;DHT22;7658;51.456;7.622;2023-05-10T02:36:15;12.40;99.90
15115;DHT22;7658;51.456;7.622;2023-05-10T02:38:42;12.40;99.90
15115;DHT22;7658;51.456;7.622;2023-05-10T02:41:10;12.40;99.90
15115;DHT22;7658;51.456;7.622;2023-05-10T02:43:37;12.30;99.90
15115;DHT22;7658;51.456;7.622;2023-05-10T02:46:05;12.40;99.90
15115;DHT22;7658;51.456;7.622;2023-05-10T02:48:31;12.30;99.90
15115;DHT22;7658;51.456;7.622;2023-05-10T02:51:02;12.30;99.90
15115;DHT22;7658;51.456;7.622;2023-05-10T02:53:36;12.20;99.90
15115;DHT22;7658;51.456;7.622;2023-05-10T02:56:13;12.20;99.90
15115;DHT22;7658;51.456;7.622;2023-05-10T02:58:41;12.20;99.90
15115;DHT22;7658;51.456;7.622;2023-05-10T03:01:07;12.10;99.90
15115;DHT22;7658;51.456;7.622;2023-05-10T03:03:33;12.10;99.90
15115;DHT22;7658;51.456;7.622;2023-05-10T03:05:59;12.10;99.90
15115;DHT22;7658;51.456;7.622;2023-05-10T03:08:25;12.00;99.90
15115;DHT22;7658;51.456;7.622;2023-05-10T03:16:38;12.00;99.90
15115;DHT22;7658;51.456;7.622;2023-05-10T03:21:44;11.90;99.90
15115;DHT22;7658;51.456;7.622;2023-05-10T03:24:13;11.80;99.90
15115;DHT22;7658;51.456;7.622;2023-05-10T03:26:43;11.90;99.90
15115;DHT22;7658;51.456;7.622;2023-05-10T03:29:11;11.80;99.90
15115;DHT22;7658;51.456;7.622;2023-05-10T03:31:38;11.80;99.90
15115;DHT22;7658;51.456;7.622;2023-05-10T03:34:04;11.80;99.90
15115;DHT22;7658;51.456;7.622;2023-05-10T03:36:30;11.80;99.90
15115;DHT22;7658;51.456;7.622;2023-05-10T03:38:56;11.80;99.90
15115;DHT22;7658;51.456;7.622;2023-05-10T03:41:22;11.70;99.90
15115;DHT22;7658;51.456;7.622;2023-05-10T03:43:47;11.70;99.90
15115;DHT22;7658;51.456;7.622;2023-05-10T03:46:13;11.80;99.90
15115;DHT22;7658;51.456;7.622;2023-05-10T03:48:39;11.80;99.90
15115;DHT22;7658;51.456;7.622;2023-05-10T03:51:04;11.70;99.90
15115;DHT22;7658;51.456;7.622;2023-05-10T03:53:30;11.70;99.90
15115;DHT22;7658;51.456;7.622;2023-05-10T03:55:56;11.70;99.90
15115;DHT22;7658;51.456;7.622;2023-05-10T03:58:22;11.70;99.90
15115;DHT22;7658;51.456;7.622;2023-05-10T04:00:47;11.70;99.90
15115;DHT22;7658;51.456;7.622;2023-05-10T04:03:13;11.70;99.90
15115;DHT22;7658;51.456;7.622;2023-05-10T04:05:39;11.70;99.90
15115;DHT22;7658;51.456;7.622;2023-05-10T04:08:06;11.70;99.90
15115;DHT22;7658;51.456;7.622;2023-05-10T04:10:32;11.80;99.90
15115;DHT22;7658;51.456;7.622;2023-05-10T04:12:58;11.70;99.90
15115;DHT22;7658;51.456;7.622;2023-05-10T04:15:23;11.80;99.90
15115;DHT22;7658;51.456;7.622;2023-05-10T04:17:49;11.70;99.90
15115;DHT22;7658;51.456;7.622;2023-05-10T04:20:15;11.70;99.90
15115;DHT22;7658;51.456;7.622;2023-05-10T04:22:41;11.80;99.90
15115;DHT22;7658;51.456;7.622;2023-05-10T04:25:07;11.80;99.90
15115;DHT22;7658;51.456;7.622;2023-05-10T04:27:33;11.80;99.90
15115;DHT22;7658;51.456;7.622;2023-05-10T04:29:59;11.80;99.90
15115;DHT22;7658;51.456;7.622;2023-05-10T04:32:25;11.90;99.90
15115;DHT22;7658;51.456;7.622;2023-05-10T04:34:50;12.00;99.90
15115;DHT22;7658;51.456;7.622;2023-05-10T04:37:17;12.00;99.90
15115;DHT22;7658;51.456;7.622;2023-05-10T04:39:43;12.00;99.90
15115;DHT22;7658;51.456;7.622;2023-05-10T04:42:09;12.00;99.90
15115;DHT22;7658;51.456;7.622;2023-05-10T04:44:35;11.90;99.90
15115;DHT22;7658;51.456;7.622;2023-05-10T04:47:01;11.90;99.90
15115;DHT22;7658;51.456;7.622;2023-05-10T04:49:29;11.90;99.90
15115;DHT22;7658;51.456;7.622;2023-05-10T04:51:55;11.90;99.90
15115;DHT22;7658;51.456;7.622;2023-05-10T04:54:21;11.90;99.90
15115;DHT22;7658;51.456;7.622;2023-05-10T04:56:47;11.90;99.90
15115;DHT22;7658;51.456;7.622;2023-05-10T04:59:12;12.00;99.90
15115;DHT22;7658;51.456;7.622;2023-05-10T05:01:39;12.00;99.90
15115;DHT22;7658;51.456;7.622;2023-05-10T05:04:04;12.00;99.90
15115;DHT22;7658;51.456;7.622;2023-05-10T05:06:30;12.00;99.90
15115;DHT22;7658;51.456;7.622;2023-05-10T05:08:56;12.00;99.90
15115;DHT22;7658;51.456;7.622;2023-05-10T05:11:22;12.00;99.90
15115;DHT22;7658;51.456;7.622;2023-05-10T05:13:49;11.90;99.90
15115;DHT22;7658;51.456;7.622;2023-05-10T05:16:14;11.90;99.90
15115;DHT22;7658;51.456;7.622;2023-05-10T05:18:40;11.90;99.90
15115;DHT22;7658;51.456;7.622;2023-05-10T05:21:16;11.90;99.90
15115;DHT22;7658;51.456;7.622;2023-05-10T05:23:42;11.90;99.90
15115;DHT22;7658;51.456;7.622;2023-05-10T05:26:08;11.80;99.90
15115;DHT22;7658;51.456;7.622;2023-05-10T05:28:34;11.90;99.90
15115;DHT22;7658;51.456;7.622;2023-05-10T05:31:03;11.80;99.90
15115;DHT22;7658;51.456;7.622;2023-05-10T05:33:29;11.80;99.90
15115;DHT22;7658;51.456;7.622;2023-05-10T05:35:55;11.90;99.90
15115;DHT22;7658;51.456;7.622;2023-05-10T05:38:20;11.90;99.90
15115;DHT22;7658;51.456;7.622;2023-05-10T05:40:46;11.90;99.90
15115;DHT22;7658;51.456;7.622;2023-05-10T05:43:15;12.00;99.90
15115;DHT22;7658;51.456;7.622;2023-05-10T05:45:41;12.00;99.90
15115;DHT22;7658;51.456;7.622;2023-05-10T05:48:07;12.00;99.90
15115;DHT22;7658;51.456;7.622;2023-05-10T05:50:32;12.10;99.90
15115;DHT22;7658;51.456;7.622;2023-05-10T05:52:58;12.20;99.90
15115;DHT22;7658;51.456;7.622;2023-05-10T05:55:24;12.10;99.90
15115;DHT22;7658;51.456;7.622;2023-05-10T05:57:51;12.20;99.90
15115;DHT22;7658;51.456;7.622;2023-05-10T06:00:17;12.10;99.90
15115;DHT22;7658;51.456;7.622;2023-05-10T06:02:42;12.20;99.90
15115;DHT22;7658;51.456;7.622;2023-05-10T06:05:11;12.20;99.90
15115;DHT22;7658;51.456;7.622;2023-05-10T06:07:37;12.10;99.90
15115;DHT22;7658;51.456;7.622;2023-05-10T06:10:03;12.20;99.90
15115;DHT22;7658;51.456;7.622;2023-05-10T06:12:29;12.20;99.90
15115;DHT22;7658;51.456;7.622;2023-05-10T06:14:54;12.30;99.90
15115;DHT22;7658;51.456;7.622;2023-05-10T06:17:20;12.30;99.90
15115;DHT22;7658;51.456;7.622;2023-05-10T06:19:47;12.40;99.90
15115;DHT22;7658;51.456;7.622;2023-05-10T06:22:12;12.40;99.90
15115;DHT22;7658;51.456;7.622;2023-05-10T06:24:38;12.40;99.90
15115;DHT22;7658;51.456;7.622;2023-05-10T06:27:04;12.40;99.90
15115;DHT22;7658;51.456;7.622;2023-05-10T06:29:31;12.40;99.90
15115;DHT22;7658;51.456;7.622;2023-05-10T06:31:56;12.30;99.90
15115;DHT22;7658;51.456;7.622;2023-05-10T06:34:22;12.30;99.90
15115;DHT22;7658;51.456;7.622;2023-05-10T06:36:48;12.40;99.90
15115;DHT22;7658;51.456;7.622;2023-05-10T06:39:14;12.40;99.90
15115;DHT22;7658;51.456;7.622;2023-05-10T06:41:39;12.40;99.90
15115;DHT22;7658;51.456;7.622;2023-05-10T06:44:05;12.40;99.90
15115;DHT22;7658;51.456;7.622;2023-05-10T06:46:31;12.40;99.90
15115;DHT22;7658;51.456;7.622;2023-05-10T06:48:57;12.50;99.90
15115;DHT22;7658;51.456;7.622;2023-05-10T06:51:22;12.60;99.90
15115;DHT22;7658;51.456;7.622;2023-05-10T06:53:48;12.60;99.90
15115;DHT22;7658;51.456;7.622;2023-05-10T06:56:14;12.60;99.90
15115;DHT22;7658;51.456;7.622;2023-05-10T06:58:40;12.60;99.90
15115;DHT22;7658;51.456;7.622;2023-05-10T07:01:05;12.70;99.90
15115;DHT22;7658;51.456;7.622;2023-05-10T07:03:32;12.70;99.90
15115;DHT22;7658;51.456;7.622;2023-05-10T07:06:02;12.80;99.90
15115;DHT22;7658;51.456;7.622;2023-05-10T07:08:29;12.90;99.90
15115;DHT22;7658;51.456;7.622;2023-05-10T07:11:00;12.90;99.90
15115;DHT22;7658;51.456;7.622;2023-05-10T07:13:26;12.90;99.90
15115;DHT22;7658;51.456;7.622;2023-05-10T07:15:52;13.10;99.90
15115;DHT22;7658;51.456;7.622;2023-05-10T07:18:18;13.10;99.90
15115;DHT22;7658;51.456;7.622;2023-05-10T07:20:43;13.10;99.90
15115;DHT22;7658;51.456;7.622;2023-05-10T07:23:09;13.10;99.90
15115;DHT22;7658;51.456;7.622;2023-05-10T07:25:35;13.00;99.90
15115;DHT22;7658;51.456;7.622;2023-05-10T07:28:01;13.10;99.90
15115;DHT22;7658;51.456;7.622;2023-05-10T07:30:26;13.10;99.90
15115;DHT22;7658;51.456;7.622;2023-05-10T07:32:52;13.20;99.90
15115;DHT22;7658;51.456;7.622;2023-05-10T07:35:18;13.40;99.90
15115;DHT22;7658;51.456;7.622;2023-05-10T07:37:44;13.50;99.90
15115;DHT22;7658;51.456;7.622;2023-05-10T07:40:10;13.60;99.90
15115;DHT22;7658;51.456;7.622;2023-05-10T07:42:36;13.80;99.90
15115;DHT22;7658;51.456;7.622;2023-05-10T07:45:01;13.80;99.90
15115;DHT22;7658;51.456;7.622;2023-05-10T07:47:27;13.80;99.90
15115;DHT22;7658;51.456;7.622;2023-05-10T07:49:53;13.90;99.90
15115;DHT22;7658;51.456;7.622;2023-05-10T07:52:19;14.00;99.90
15115;DHT22;7658;51.456;7.622;2023-05-10T07:54:44;14.10;99.90
15115;DHT22;7658;51.456;7.622;2023-05-10T07:57:10;14.10;99.90
15115;DHT22;7658;51.456;7.622;2023-05-10T07:59:36;14.00;99.90
15115;DHT22;7658;51.456;7.622;2023-05-10T08:02:01;14.00;99.90
15115;DHT22;7658;51.456;7.622;2023-05-10T08:04:27;14.00;99.90
15115;DHT22;7658;51.456;7.622;2023-05-10T08:06:53;14.10;99.90
15115;DHT22;7658;51.456;7.622;2023-05-10T08:09:19;14.20;99.90
15115;DHT22;7658;51.456;7.622;2023-05-10T08:11:49;14.50;99.90
15115;DHT22;7658;51.456;7.622;2023-05-10T08:14:15;14.90;99.90
15115;DHT22;7658;51.456;7.622;2023-05-10T08:16:40;15.00;99.90
15115;DHT22;7658;51.456;7.622;2023-05-10T08:19:06;15.10;99.90
15115;DHT22;7658;51.456;7.622;2023-05-10T08:21:32;15.10;99.90
15115;DHT22;7658;51.456;7.622;2023-05-10T08:23:58;14.90;99.90
15115;DHT22;7658;51.456;7.622;2023-05-10T08:26:23;14.70;99.90
15115;DHT22;7658;51.456;7.622;2023-05-10T08:28:49;14.60;99.90
15115;DHT22;7658;51.456;7.622;2023-05-10T08:31:15;14.50;99.90
15115;DHT22;7658;51.456;7.622;2023-05-10T08:33:41;14.40;99.90
15115;DHT22;7658;51.456;7.622;2023-05-10T08:36:07;14.40;99.90
15115;DHT22;7658;51.456;7.622;2023-05-10T08:38:32;14.50;99.90
15115;DHT22;7658;51.456;7.622;2023-05-10T08:40:58;15.00;99.90
15115;DHT22;7658;51.456;7.622;2023-05-10T08:43:28;15.90;99.90
15115;DHT22;7658;51.456;7.622;2023-05-10T08:45:55;16.60;99.90
15115;DHT22;7658;51.456;7.622;2023-05-10T08:48:23;16.90;99.90
15115;DHT22;7658;51.456;7.622;2023-05-10T08:50:53;16.70;99.90
15115;DHT22;7658;51.456;7.622;2023-05-10T08:53:24;16.20;99.90
15115;DHT22;7658;51.456;7.622;2023-05-10T08:55:50;15.90;99.90
15115;DHT22;7658;51.456;7.622;2023-05-10T08:58:16;15.50;99.90
15115;DHT22;7658;51.456;7.622;2023-05-10T09:00:42;15.40;99.90
15115;DHT22;7658;51.456;7.622;2023-05-10T09:03:09;15.20;99.90
15115;DHT22;7658;51.456;7.622;2023-05-10T09:05:36;15.00;99.90
15115;DHT22;7658;51.456;7.622;2023-05-10T09:08:02;15.00;99.90
15115;DHT22;7658;51.456;7.622;2023-05-10T09:10:28;15.10;99.90
15115;DHT22;7658;51.456;7.622;2023-05-10T09:12:58;15.90;99.90
15115;DHT22;7658;51.456;7.622;2023-05-10T09:15:23;16.80;99.90
15115;DHT22;7658;51.456;7.622;2023-05-10T09:17:49;17.50;99.90
15115;DHT22;7658;51.456;7.622;2023-05-10T09:20:15;17.90;99.90
15115;DHT22;7658;51.456;7.622;2023-05-10T09:22:43;18.30;99.90
15115;DHT22;7658;51.456;7.622;2023-05-10T09:25:15;18.10;99.90
15115;DHT22;7658;51.456;7.622;2023-05-10T09:27:44;17.80;99.90
15115;DHT22;7658;51.456;7.622;2023-05-10T09:30:15;18.20;99.90
15115;DHT22;7658;51.456;7.622;2023-05-10T09:32:43;18.70;99.90
15115;DHT22;7658;51.456;7.622;2023-05-10T09:35:11;19.40;99.90
15115;DHT22;7658;51.456;7.622;2023-05-10T09:37:39;19.90;10.00
15115;DHT22;7658;51.456;7.622;2023-05-10T09:40:08;20.50;99.90
15115;DHT22;7658;51.456;7.622;2023-05-10T09:42:36;20.50;1.00
15115;DHT22;7658;51.456;7.622;2023-05-10T09:45:05;20.10;1.00
15115;DHT22;7658;51.456;7.622;2023-05-10T09:47:33;19.30;7.30
15115;DHT22;7658;51.456;7.622;2023-05-10T09:50:00;18.80;99.90
15115;DHT22;7658;51.456;7.622;2023-05-10T09:52:52;18.40;99.90
15115;DHT22;7658;51.456;7.622;2023-05-10T09:55:22;17.70;99.90
15115;DHT22;7658;51.456;7.622;2023-05-10T09:57:58;17.40;99.90
15115;DHT22;7658;51.456;7.622;2023-05-10T10:00:24;17.00;99.90
15115;DHT22;7658;51.456;7.622;2023-05-10T10:02:59;16.90;99.90
15115;DHT22;7658;51.456;7.622;2023-05-10T10:05:32;17.00;99.90
15115;DHT22;7658;51.456;7.622;2023-05-10T10:07:59;16.90;99.90
15115;DHT22;7658;51.456;7.622;2023-05-10T10:10:26;17.10;99.90
15115;DHT22;7658;51.456;7.622;2023-05-10T10:12:53;17.10;99.90
15115;DHT22;7658;51.456;7.622;2023-05-10T10:15:21;17.00;99.90
15115;DHT22;7658;51.456;7.622;2023-05-10T10:17:47;17.20;99.90
15115;DHT22;7658;51.456;7.622;2023-05-10T10:20:14;17.30;99.90
15115;DHT22;7658;51.456;7.622;2023-05-10T10:22:40;17.60;99.90
15115;DHT22;7658;51.456;7.622;2023-05-10T10:25:07;17.50;99.90
15115;DHT22;7658;51.456;7.622;2023-05-10T10:36:02;17.80;99.90
15115;DHT22;7658;51.456;7.622;2023-05-10T10:41:34;18.60;99.90
15115;DHT22;7658;51.456;7.622;2023-05-10T10:49:32;18.20;99.90
15115;DHT22;7658;51.456;7.622;2023-05-10T10:54:54;17.60;99.90
15115;DHT22;7658;51.456;7.622;2023-05-10T10:57:22;17.20;99.90
15115;DHT22;7658;51.456;7.622;2023-05-10T10:59:48;16.90;99.90
15115;DHT22;7658;51.456;7.622;2023-05-10T11:05:33;16.70;99.90
15115;DHT22;7658;51.456;7.622;2023-05-10T11:10:37;16.80;99.90
15115;DHT22;7658;51.456;7.622;2023-05-10T11:13:10;17.00;99.90
15115;DHT22;7658;51.456;7.622;2023-05-10T11:15:37;17.30;99.90
15115;DHT22;7658;51.456;7.622;2023-05-10T11:18:20;17.60;99.90
15115;DHT22;7658;51.456;7.622;2023-05-10T11:21:12;17.60;99.90
15115;DHT22;7658;51.456;7.622;2023-05-10T11:26:09;17.10;99.90
15115;DHT22;7658;51.456;7.622;2023-05-10T11:28:45;16.80;99.90
15115;DHT22;7658;51.456;7.622;2023-05-10T11:31:14;16.40;99.90
15115;DHT22;7658;51.456;7.622;2023-05-10T11:33:44;16.20;99.90
15115;DHT22;7658;51.456;7.622;2023-05-10T11:36:27;16.00;99.90
15115;DHT22;7658;51.456;7.622;2023-05-10T11:38:55;15.90;99.90
15115;DHT22;7658;51.456;7.622;2023-05-10T11:41:22;16.00;99.90
15115;DHT22;7658;51.456;7.622;2023-05-10T11:43:52;16.00;99.90
15115;DHT22;7658;51.456;7.622;2023-05-10T11:46:19;16.20;99.90
15115;DHT22;7658;51.456;7.622;2023-05-10T11:48:50;16.60;99.90
15115;DHT22;7658;51.456;7.622;2023-05-10T11:51:23;16.90;99.90
15115;DHT22;7658;51.456;7.622;2023-05-10T11:53:50;16.80;99.90
15115;DHT22;7658;51.456;7.622;2023-05-10T11:56:16;16.70;99.90
15115;DHT22;7658;51.456;7.622;2023-05-10T11:58:42;16.60;99.90
15115;DHT22;7658;51.456;7.622;2023-05-10T12:01:09;16.50;99.90
15115;DHT22;7658;51.456;7.622;2023-05-10T12:03:36;16.30;99.90
15115;DHT22;7658;51.456;7.622;2023-05-10T12:06:02;16.40;99.90
15115;DHT22;7658;51.456;7.622;2023-05-10T12:08:29;16.20;99.90
15115;DHT22;7658;51.456;7.622;2023-05-10T12:11:07;16.10;99.90
15115;DHT22;7658;51.456;7.622;2023-05-10T12:13:38;16.10;99.90
15115;DHT22;7658;51.456;7.622;2023-05-10T12:16:21;16.10;99.90
15115;DHT22;7658;51.456;7.622;2023-05-10T12:18:51;16.20;99.90
15115;DHT22;7658;51.456;7.622;2023-05-10T12:21:19;16.30;99.90
15115;DHT22;7658;51.456;7.622;2023-05-10T12:23:46;16.50;99.90
15115;DHT22;7658;51.456;7.622;2023-05-10T12:26:12;16.60;99.90
15115;DHT22;7658;51.456;7.622;2023-05-10T12:28:38;16.70;99.90
15115;DHT22;7658;51.456;7.622;2023-05-10T12:31:07;16.80;99.90
15115;DHT22;7658;51.456;7.622;2023-05-10T12:33:39;16.80;99.90
15115;DHT22;7658;51.456;7.622;2023-05-10T12:36:09;16.80;99.90
15115;DHT22;7658;51.456;7.622;2023-05-10T12:38:45;16.60;99.90
15115;DHT22;7658;51.456;7.622;2023-05-10T12:41:15;16.60;99.90
15115;DHT22;7658;51.456;7.622;2023-05-10T12:43:42;16.50;99.90
15115;DHT22;7658;51.456;7.622;2023-05-10T12:46:13;16.50;99.90
15115;DHT22;7658;51.456;7.622;2023-05-10T12:48:40;16.50;99.90
15115;DHT22;7658;51.456;7.622;2023-05-10T12:51:07;16.60;99.90
15115;DHT22;7658;51.456;7.622;2023-05-10T12:53:38;16.80;99.90
15115;DHT22;7658;51.456;7.622;2023-05-10T12:56:04;16.80;99.90
15115;DHT22;7658;51.456;7.622;2023-05-10T12:58:30;17.10;99.90
15115;DHT22;7658;51.456;7.622;2023-05-10T13:00:57;17.40;99.90
15115;DHT22;7658;51.456;7.622;2023-05-10T13:03:23;17.40;93.40
15115;DHT22;7658;51.456;7.622;2023-05-10T13:05:49;17.30;70.60
15115;DHT22;7658;51.456;7.622;2023-05-10T13:08:15;17.70;99.90
15115;DHT22;7658;51.456;7.622;2023-05-10T13:10:41;17.70;99.90
15115;DHT22;7658;51.456;7.622;2023-05-10T13:13:06;17.60;99.90
15115;DHT22;7658;51.456;7.622;2023-05-10T13:15:33;17.30;88.60
15115;DHT22;7658;51.456;7.622;2023-05-10T13:17:59;17.20;99.90
15115;DHT22;7658;51.456;7.622;2023-05-10T13:20:26;17.20;99.90
15115;DHT22;7658;51.456;7.622;2023-05-10T13:22:52;17.20;99.90
15115;DHT22;7658;51.456;7.622;2023-05-10T13:25:18;17.20;99.90
15115;DHT22;7658;51.456;7.622;2023-05-10T13:27:45;17.40;99.90
15115;DHT22;7658;51.456;7.622;2023-05-10T13:30:11;17.50;96.70
15115;DHT22;7658;51.456;7.622;2023-05-10T13:32:37;17.40;76.70
15115;DHT22;7658;51.456;7.622;2023-05-10T13:35:04;17.50;96.00
15115;DHT22;7658;51.456;7.622;2023-05-10T13:37:31;17.40;99.90
15115;DHT22;7658;51.456;7.622;2023-05-10T13:39:57;17.60;99.90
15115;DHT22;7658;51.456;7.622;2023-05-10T13:42:23;17.80;44.50
15115;DHT22;7658;51.456;7.622;2023-05-10T13:44:50;17.80;50.70
15115;DHT22;7658;51.456;7.622;2023-05-10T13:47:16;18.00;34.50
15115;DHT22;7658;51.456;7.622;2023-05-10T13:49:42;18.10;1.00
15115;DHT22;7658;51.456;7.622;2023-05-10T13:52:08;17.80;1.00
15115;DHT22;7658;51.456;7.622;2023-05-10T13:54:36;17.70;1.00
15115;DHT22;7658;51.456;7.622;2023-05-10T13:57:02;17.60;1.00
15115;DHT22;7658;51.456;7.622;2023-05-10T13:59:29;17.60;1.00
15115;DHT22;7658;51.456;7.622;2023-05-10T14:01:57;17.80;1.00
15115;DHT22;7658;51.456;7.622;2023-05-10T14:04:23;17.60;1.00
15115;DHT22;7658;51.456;7.622;2023-05-10T14:06:48;17.70;1.00
15115;DHT22;7658;51.456;7.622;2023-05-10T14:09:14;17.80;1.00
15115;DHT22;7658;51.456;7.622;2023-05-10T14:11:40;17.80;1.00
15115;DHT22;7658;51.456;7.622;2023-05-10T14:14:09;17.80;1.00
15115;DHT22;7658;51.456;7.622;2023-05-10T14:16:35;17.80;1.00
15115;DHT22;7658;51.456;7.622;2023-05-10T14:19:01;17.80;1.00
15115;DHT22;7658;51.456;7.622;2023-05-10T14:21:27;17.70;1.00
15115;DHT22;7658;51.456;7.622;2023-05-10T14:23:55;17.60;1.00
15115;DHT22;7658;51.456;7.622;2023-05-10T14:26:21;17.50;22.90
15115;DHT22;7658;51.456;7.622;2023-05-10T14:28:47;17.60;19.50
15115;DHT22;7658;51.456;7.622;2023-05-10T14:31:13;17.80;37.70
15115;DHT22;7658;51.456;7.622;2023-05-10T14:33:39;18.00;7.90
15115;DHT22;7658;51.456;7.622;2023-05-10T14:36:06;17.80;1.00
15115;DHT22;7658;51.456;7.622;2023-05-10T14:38:32;18.00;16.80
15115;DHT22;7658;51.456;7.622;2023-05-10T14:40:59;18.00;24.10
15115;DHT22;7658;51.456;7.622;2023-05-10T14:43:25;18.00;34.30
15115;DHT22;7658;51.456;7.622;2023-05-10T14:45:52;18.00;51.10
15115;DHT22;7658;51.456;7.622;2023-05-10T14:48:18;18.10;69.80
15115;DHT22;7658;51.456;7.622;2023-05-10T14:50:45;18.10;17.40
15115;DHT22;7658;51.456;7.622;2023-05-10T14:53:11;18.10;1.00
15115;DHT22;7658;51.456;7.622;2023-05-10T14:55:37;18.10;1.00
15115;DHT22;7658;51.456;7.622;2023-05-10T14:58:03;18.00;30.70
15115;DHT22;7658;51.456;7.622;2023-05-10T15:00:31;17.80;15.20
15115;DHT22;7658;51.456;7.622;2023-05-10T15:02:57;17.60;53.40
15115;DHT22;7658;51.456;7.622;2023-05-10T15:05:23;17.50;99.90
15115;DHT22;7658;51.456;7.622;2023-05-10T15:07:48;17.50;67.60
15115;DHT22;7658;51.456;7.622;2023-05-10T15:10:14;17.60;84.30
15115;DHT22;7658;51.456;7.622;2023-05-10T15:12:40;17.70;18.10
15115;DHT22;7658;51.456;7.622;2023-05-10T15:15:07;17.90;56.70
15115;DHT22;7658;51.456;7.622;2023-05-10T15:17:34;18.20;1.00
15115;DHT22;7658;51.456;7.622;2023-05-10T15:20:01;18.30;1.00
15115;DHT22;7658;51.456;7.622;2023-05-10T15:22:29;18.50;1.00
15115;DHT22;7658;51.456;7.622;2023-05-10T15:24:57;18.50;1.00
15115;DHT22;7658;51.456;7.622;2023-05-10T15:27:23;18.30;1.00
15115;DHT22;7658;51.456;7.622;2023-05-10T15:29:49;18.60;1.00
15115;DHT22;7658;51.456;7.622;2023-05-10T15:32:15;18.90;1.00
15115;DHT22;7658;51.456;7.622;2023-05-10T15:34:40;19.10;1.00
15115;DHT22;7658;51.456;7.622;2023-05-10T15:37:06;19.60;1.00
15115;DHT22;7658;51.456;7.622;2023-05-10T15:39:32;19.90;99.90
15115;DHT22;7658;51.456;7.622;2023-05-10T15:41:57;20.10;99.90
15115;DHT22;7658;51.456;7.622;2023-05-10T15:44:23;20.10;99.90
15115;DHT22;7658;51.456;7.622;2023-05-10T15:46:49;20.10;11.20
15115;DHT22;7658;51.456;7.622;2023-05-10T15:49:15;20.30;99.90
15115;DHT22;7658;51.456;7.622;2023-05-10T15:51:41;19.90;99.90
15115;DHT22;7658;51.456;7.622;2023-05-10T15:54:07;19.50;1.00
15115;DHT22;7658;51.456;7.622;2023-05-10T15:56:33;19.10;1.00
15115;DHT22;7658;51.456;7.622;2023-05-10T15:59:00;18.70;99.90
15115;DHT22;7658;51.456;7.622;2023-05-10T16:01:27;18.40;99.90
15115;DHT22;7658;51.456;7.622;2023-05-10T16:03:53;18.30;99.90
15115;DHT22;7658;51.456;7.622;2023-05-10T16:06:18;18.20;99.90
15115;DHT22;7658;51.456;7.622;2023-05-10T16:08:45;18.10;1.00
15115;DHT22;7658;51.456;7.622;2023-05-10T16:11:11;18.00;1.00
15115;DHT22;7658;51.456;7.622;2023-05-10T16:13:37;17.80;1.00
15115;DHT22;7658;51.456;7.622;2023-05-10T16:16:03;17.70;1.00
15115;DHT22;7658;51.456;7.622;2023-05-10T16:18:29;17.60;1.00
15115;DHT22;7658;51.456;7.622;2023-05-10T16:20:55;17.60;1.00
15115;DHT22;7658;51.456;7.622;2023-05-10T16:23:21;17.50;1.00
15115;DHT22;7658;51.456;7.622;2023-05-10T16:25:47;17.40;1.00
15115;DHT22;7658;51.456;7.622;2023-05-10T16:28:12;17.40;1.00
15115;DHT22;7658;51.456;7.622;2023-05-10T16:30:38;17.30;15.00
15115;DHT22;7658;51.456;7.622;2023-05-10T16:33:04;17.30;19.70
15115;DHT22;7658;51.456;7.622;2023-05-10T16:35:30;17.20;80.10
15115;DHT22;7658;51.456;7.622;2023-05-10T16:37:56;17.30;58.90